ADDS METAR Data INFO
IDs: Format: Raw Decoded Include TAF

Data at: 0209 UTC 26 Apr 2017

Region: TOP
KATL 260152Z 32005KT 10SM CLR 21/13 A2976 RMK AO2 SLP072 T02060133

KBOS 260154Z 03015KT 2 1/2SM -RA BR OVC005 08/08 A3011 RMK AO2 SLP196 P0005 T00830083

KBWI 260154Z 05012KT 6SM -RA BR OVC006 14/14 A2974 RMK AO2 DZE19RAB19 SLP070 P0000 T01390139

KCLE 260151Z 12012KT 10SM BKN250 19/12 A2977 RMK AO2 SLP079 T01890117

KCLT 260152Z 07004KT 10SM BKN042 BKN050 18/14 A2978 RMK AO2 SLP079 T01830139

KCVG 260152Z 18006KT 10SM SCT250 18/14 A2970 RMK AO2 SLP049 T01780139

KDCA 260152Z 02011KT 8SM OVC006 15/14 A2975 RMK AO2 SLP075 T01500144

KDEN 260153Z 02015KT 10SM SCT030 BKN050 05/02 A2973 RMK AO2 PK WND 01032/0055 RAE31 SLP043 RAB24 TSB2357E13 P0001 T00500022

KDFW 260153Z 16017KT 10SM FEW300 27/21 A2941 RMK AO2 PK WND 17028/0142 SLP950 T02670206

KDTW 260153Z 10008KT 10SM FEW100 BKN250 15/11 A2973 RMK AO2 SLP068 T01500111

KEWR 260151Z 03016G22KT 5SM -RA BR BKN008 OVC013 12/11 A2988 RMK AO2 SLP116 P0018 T01170106 $

KFLL 260153Z 24011KT 10SM FEW080 FEW150 SCT250 23/14 A2985 RMK AO2 SLP109 T02330144 $

KIAD 260200Z 02006KT 2SM -DZ BR BKN004 OVC010 14/13 A2976 RMK AO2 DZB0159 P0000 T01440133

KIAH 260153Z 16016G21KT 10SM FEW022 SCT027 BKN042 25/21 A2958 RMK AO2 SLP015 T02500206

KJFK 260151Z 04012KT 10SM -RA OVC009 13/13 A2987 RMK AO2 SLP116 P0017 T01330128

KLAS 260156Z 02013KT 10SM FEW150 FEW250 24/M09 A2977 RMK AO2 SLP062 T02391094

KLAX 260153Z 27010KT 10SM FEW100 SCT150 BKN200 18/11 A2986 RMK AO2 SLP109 T01780111

KLGA 260151Z 05017KT 2SM RA BR BKN006 OVC016 11/10 A2988 RMK AO2 SFC VIS 2 1/2 SLP119 P0024 T01110100

KMCO 260153Z 27008KT 10SM CLR 22/11 A2984 RMK AO2 SLP104 T02170106

KMDW 260153Z 15007KT 10SM SCT150 OVC250 23/11 A2956 RMK AO2 SLP004 VIRGA SW-W T02330111

KMEM 260154Z 18009KT 10SM CLR 22/12 A2961 RMK AO2 SLP022 T02220122

KMIA 260153Z COR 25006KT 10SM SCT250 23/14 A2987 RMK AO2 SLP116 T02330139

KMSP 260203Z 05007KT 5SM -RA BR FEW007 OVC017 12/11 A2957 RMK AO2 P0001 T01220106

KORD 260151Z 15009KT 10SM FEW130 BKN180 OVC250 23/11 A2955 RMK AO2 SLP003 T02280106

KPDX 260153Z 12009KT 1 1/2SM BR SCT006 BKN015 OVC020 11/09 A2984 RMK AO2 RAB37E48 SLP103 P0000 T01060094

KPHL 260154Z 05015G21KT 6SM RA BR OVC006 13/12 A2979 RMK AO2 RAB44 SLP088 P0000 T01330122 $

KPHX 260151Z 30023G32KT 10SM FEW130 SCT210 BKN250 28/M10 A2963 RMK AO2 PK WND 28032/0055 SLP018 T02831100

KPIT 260151Z 09005KT 10SM FEW065 BKN250 13/12 A2980 RMK AO2 SLP098 T01330122 $

KSAN 260151Z 30008KT 10SM FEW017 FEW030 BKN250 18/13 A2991 RMK AO2 SLP126 T01830133 PNO $

KSEA 260153Z 25006KT 10SM -RA FEW043 OVC055 12/06 A2980 RMK AO2 RAB10E11B46 SLP099 P0000 T01170061

KSFO 260156Z 28011KT 10SM FEW015 FEW045 FEW065 14/10 A3009 RMK AO2 PK WND 28026/0059 SLP190 T01440100

KSLC 260154Z 00000KT 10SM SCT095 BKN180 BKN240 10/03 A2990 RMK AO2 SLP111 ACSL DSNT NE T01000028

KSTL 260151Z 17011KT 10SM SCT150 BKN200 24/09 A2952 RMK AO2 SLP988 T02440094

KTPA 260153Z 27007KT 10SM CLR 22/13 A2985 RMK AO2 SLP109 T02220133


Page loaded:  02:09 UTC  |   07:09 PM Pacific  |   08:09 PM Mountain  |   09:09 PM Central  |   10:09 PM Eastern

 

ADVISORIES

FORECASTS

FORECASTS

OBSERVATIONS

USER TOOLS

ABOUT US